Flight Track Log - Related Links

Times and Time Zones

All times are in EDT time to prevent confusion due to time zone crossing. See the AIP5009 flight status page for this flight to view local times or setup timezone preferences in your user account.

Time Position Orientation Groundspeed Altitude Reporting Facility
EDT Latitude Longitude Course Direction KTS MPH feet Rate Location/Type
Fri 04:45:24 AM 46.8914 -114.1389 111° Southeast 169 194 7,600  Level Salt Lake Center
Fri 04:46:24 AM 46.8758 -114.0783 111° Southeast 163 188 9,700 2,000 Climbing Salt Lake Center
Fri 04:47:24 AM 46.8633 -114.0067 104° East 184 212 11,600 1,800 Climbing Salt Lake Center
Fri 04:48:24 AM 46.8514 -113.9314 103° East 190 219 13,300 1,736 Climbing Salt Lake Center
Fri 04:49:25 AM 46.8428 -113.8500 99° East 203 234 15,100 1,636 Climbing Salt Lake Center
Fri 04:50:25 AM 46.8297 -113.7697 103° East 204 235 16,600 1,400 Climbing Salt Lake Center
Fri 04:51:25 AM 46.8164 -113.6844 103° East 216 249 17,900 1,400 Climbing Salt Lake Center
Fri 04:52:25 AM 46.7997 -113.5997 106° East 219 252 19,400 1,350 Climbing Salt Lake Center
Fri 04:53:25 AM 46.7875 -113.5169 102° East 219 252 20,600 1,091 Climbing Salt Lake Center
Fri 04:54:26 AM 46.7736 -113.4275 103° East 226 260 21,600 942 Climbing Salt Lake Center
Fri 04:55:26 AM 46.7525 -113.3381 109° East 233 268 22,500 700 Climbing Salt Lake Center
Fri 04:56:26 AM 46.7331 -113.2406 106° East 251 289 23,000 200 Climbing Salt Lake Center
Fri 04:57:26 AM 46.7164 -113.1319 103° East 275 316 22,900 100 Descending Salt Lake Center
Fri 04:58:26 AM 46.6967 -113.0200 104° East 285 328 23,200 99 Climbing Salt Lake Center
Fri 04:59:27 AM 46.6739 -112.8939 105° East 297 342 23,100 -99 Descending Salt Lake Center
Fri 05:00:27 AM 46.6611 -112.7728 99° East 303 349 23,000 -50 Descending Salt Lake Center
Fri 05:01:27 AM 46.6450 -112.6572 101° East 297 342 23,000 -50 Level Salt Lake Center
Fri 05:02:27 AM 46.6244 -112.5428 105° East 294 338 22,900  Descending Salt Lake Center
Fri 05:03:27 AM 46.6003 -112.4322 108° East 291 335 23,000 99 Climbing Salt Lake Center
Fri 05:04:28 AM 46.5786 -112.3228 106° East 288 331 23,100  Climbing Salt Lake Center
Fri 05:05:28 AM 46.5567 -112.2147 106° East 285 328 23,000  Descending Salt Lake Center
Fri 05:06:28 AM 46.5367 -112.1011 104° East 287 330 23,100  Climbing Salt Lake Center
Fri 05:07:28 AM 46.5203 -111.9867 102° East 290 334 23,000 -50 Descending Salt Lake Center
Fri 05:08:28 AM 46.5028 -111.8742 103° East 289 333 23,000  Level Salt Lake Center
Fri 05:09:29 AM 46.4800 -111.7647 107° East 286 329 23,000 50 Level Salt Lake Center
Fri 05:10:29 AM 46.4569 -111.6542 107° East 288 331 23,100 50 Climbing Salt Lake Center
Fri 05:11:29 AM 46.4303 -111.5350 108° East 286 329 23,100  Level Salt Lake Center
Fri 05:12:29 AM 46.4067 -111.4325 108° East 283 326 23,100 -50 Level Salt Lake Center
Fri 05:13:29 AM 46.3856 -111.3325 107° East 281 323 23,000  Descending Salt Lake Center
Fri 05:14:30 AM 46.3622 -111.2214 107° East 283 326 23,100  Climbing Salt Lake Center
Fri 05:15:30 AM 46.3419 -111.1086 105° East 286 329 23,000 -50 Descending Salt Lake Center
Fri 05:16:30 AM 46.3228 -110.9944 104° East 289 333 23,000  Level Salt Lake Center
Fri 05:17:30 AM 46.2975 -110.8906 109° East 283 326 23,000  Level Salt Lake Center
Fri 05:18:30 AM 46.2786 -110.7775 104° East 288 331 23,000 50 Level Salt Lake Center
Fri 05:19:31 AM 46.2592 -110.6661 104° East 287 330 23,100 50 Climbing Salt Lake Center
Fri 05:20:31 AM 46.2375 -110.5539 106° East 290 334 23,100 -50 Level Salt Lake Center
Fri 05:21:31 AM 46.2150 -110.4431 106° East 290 334 23,000 -100 Descending Salt Lake Center
Fri 05:22:31 AM 46.1922 -110.3317 106° East 290 334 22,900 -300 Descending Salt Lake Center
Fri 05:23:31 AM 46.1642 -110.2206 110° East 293 337 22,400 -645 Descending Salt Lake Center
Fri 05:24:32 AM 46.1383 -110.1044 108° East 301 346 21,600 -843 Descending Salt Lake Center
Fri 05:25:32 AM 46.1117 -109.9869 108° East 307 353 20,700 -900 Descending Salt Lake Center
Fri 05:26:32 AM 46.0892 -109.8647 105° East 313 360 19,800 -1,050 Descending Salt Lake Center
Fri 05:27:32 AM 46.0681 -109.7283 103° East 316 364 18,600 -950 Descending Salt Lake Center
Fri 05:28:32 AM 46.0478 -109.6083 104° East 311 358 17,900 -694 Descending Salt Lake Center
Fri 05:29:33 AM 46.0289 -109.4836 102° East 299 344 17,200 -893 Descending Salt Lake Center
Fri 05:30:33 AM 46.0147 -109.3669 100° East 299 344 16,100 -1,050 Descending Salt Lake Center
Fri 05:31:33 AM 45.9939 -109.2528 105° East 300 345 15,100 -1,200 Descending Salt Lake Center
Fri 05:32:33 AM 45.9689 -109.1414 108° East 298 343 13,700 -1,400 Descending Salt Lake Center
Fri 05:33:33 AM 45.9406 -109.0303 110° East 300 345 12,300 -1,438 Descending Salt Lake Center
Fri 05:34:34 AM 45.9111 -108.9153 110° East 309 356 10,800 -1,587 Descending Salt Lake Center
Fri 05:35:34 AM 45.8828 -108.8094 111° Southeast 290 334 9,100 -2,100 Descending Salt Lake Center
Fri 05:36:34 AM 45.8531 -108.7028 112° Southeast 272 313 6,600 -2,100 Descending Salt Lake Center
Fri 05:37:34 AM 45.8311 -108.6222 111° Southeast 224 258 4,900 -1,350 Descending Salt Lake Center
Fri 05:38:34 AM 45.8158 -108.5664 111° Southeast 177 204 3,900 -1,000 Descending Salt Lake Center
Fri 05:40:00 AM 45.8077 -108.5429 110° East  Level Estimated
Fri 05:47:00 AM 45.8077 -108.5429 110° East  Level Estimated

Login

Don't have an account? Register now (free) for customized features, flight alerts, and more!